Lida, Belarus

5:43 PM FET on October 22, 2014 (GMT +0300)
Vilnius International | Change Station
CLOSE
Current Station
Airport
Location: Vilnius,
Elevation: 643 ft
Nearby Weather Stations

Elev 643 ft 54.63 °N, 25.29 °E | Updated 23 minutes ago

Overcast
Overcast
32 °F
Feels Like 24 °F
N
9
Wind Variable Wind from East

Today
High -- | Low -- °F
--% Chance of Precip.
Yesterday
High -- | Low -- °F
Precip. -- in
7:59 AM 6:06 PM
Waning Crescent, 2% visible
Pressure 29.92 in
Visibility 6.2 miles
Clouds Overcast 1600 ft
Windchill 24 °F
Dew Point 27 °F
Humidity 80%
Rainfall 0.00 in
Snow Depth Not available.
UV 0 out of 12
Pollen Not available.
Air Quality Not available.
Flu Activity Not available.
METAR EYVI 221420Z 08008KT 050V120 9999 OVC016 00/M03 Q1013 NOSIG

More Conditions Fewer Conditions

Pressure 29.92 in
Visibility 6.2 miles
Clouds Overcast 1600 ft
Windchill 24 °F
Dew Point 27 °F
Humidity 80%
Rainfall 0.00 in
Snow Depth Not available.
UV 0 out of 12
Pollen Not available.
Air Quality Not available.
Flu Activity Not available.
METAR EYVI 221420Z 08008KT 050V120 9999 OVC016 00/M03 Q1013 NOSIG

More Conditions Fewer Conditions

10-Day Weather Forecast

Almanac

Astronomy

Oct. 22, 2014 Rise Set
Actual Time 7:59 AM FET 6:06 PM FET
Civil Twilight 7:22 AM FET 6:42 PM FET
Nautical Twilight 6:41 AM FET 7:23 PM FET
Astronomical Twilight 6:01 AM FET 8:04 PM FET
Moon 6:08 AM FET 5:32 PM FET
Length of Visible Light 11h 19m
Length of Day
10h 07m
Tomorrow will be 4m 7s shorter.
Waning Crescent, 2% of the Moon is Illuminated
Today
Waning Crescent
Oct 23
New
Oct 30
First Quarter
Nov 6
Full
Nov 14
Last Quarter

Today's Extremes

Country Highs Country Lows

Community

WunderPhotos

Upload Photos

1,763,935 photos uploaded!

WunderBlogs® & News

Nearby

Snow Depth

Not available.

Earthquake Activity

City Distance Mag. Time & Date
No recent earthquake activity has been reported nearby.
Minimum magnitude displayed is 2.5.

Coastal Water Temperatures

Place Temperature
No Stations Reporting

Nearby Weather Stations